Mariner Of The Seas — C6FV9 — position and weather

sailwx.info

Track history (hours):
 
Tides and Currents Weather Stations Pressure Air Temp Water Temp Dewpoint Dewpoint Depression Visibility Wind Speed Wind Dir Waves Ship Positions

Mariner Of The Seas

Operator: Royal Caribbean Cruises Ltd

Last reported at 2018-Feb-24 11:27 UTC. Time now 2018-Feb-25 07:51 UTC.
Position N 01°22' E 103°15'.

Type: Passenger vessel. MMSI: 311493000.

Date/timePositionNaut miles runAvg speedWind from/ knotsBaromVisibWave heightAir tempDewpointWater temp
2018-Feb-24 11:27N 01°22' E 103°15'816.2
2018-Feb-24 10:58N 01°17' E 103°21'815.8
2018-Feb-24 10:29N 01°13' E 103°27'715.2
2018-Feb-24 09:59N 01°11' E 103°35'715.5
2018-Feb-24 09:30N 01°09' E 103°42'815.5
2018-Feb-24 09:00N 01°11' E 103°49'5 9.8
2018-Feb-24 08:30N 01°16' E 103°52'0 0.6
2018-Feb-24 07:52N 01°16' E 103°52'0 0.0
2018-Feb-24 07:25N 01°16' E 103°52'0 0.0
2018-Feb-24 06:52N 01°16' E 103°52'0 0.0
2018-Feb-24 06:28N 01°16' E 103°52'0 0.0
2018-Feb-24 05:52N 01°16' E 103°52'0 0.0
2018-Feb-24 05:28N 01°16' E 103°52'0 0.0
2018-Feb-24 04:58N 01°16' E 103°52'0 0.0
2018-Feb-24 04:28N 01°16' E 103°52'0 0.0
2018-Feb-24 03:58N 01°16' E 103°52'0 0.0
2018-Feb-24 03:28N 01°16' E 103°52'0 0.0
2018-Feb-24 02:58N 01°16' E 103°52'0 0.0
2018-Feb-24 02:16N 01°16' E 103°52'0 0.0
2018-Feb-24 01:58N 01°16' E 103°52'0 0.0
2018-Feb-24 01:22N 01°16' E 103°52'0 0.0
2018-Feb-24 00:52N 01°16' E 103°52'0 0.0
2018-Feb-24 00:28N 01°16' E 103°52'0 0.0
2018-Feb-23 23:56N 01°16' E 103°52'3 6.4
2018-Feb-23 23:30N 01°14' E 103°53'4 7.9
2018-Feb-23 23:00N 01°11' E 103°50'714.7
2018-Feb-23 22:31N 01°07' E 103°44'713.9
2018-Feb-23 22:00N 01°03' E 103°38'816.8
2018-Feb-23 21:30N 01°08' E 103°31'816.4
2018-Feb-23 21:00N 01°12' E 103°24'816.4
2018-Feb-23 20:30N 01°17' E 103°17'23115.9
2018-Feb-23 06:00N 03°42' E 100°18'114 2.6 280 / 51016.6 5.4 30.0 30.0
2018-Feb-21 10:56N 05°35' E 100°13'613.8
2018-Feb-21 10:29N 05°32' E 100°18'612.3
2018-Feb-21 09:58N 05°26' E 100°21'1 1.5
2018-Feb-21 09:24N 05°25' E 100°21'0 0.0
2018-Feb-21 09:00N 05°25' E 100°21'0 0.0
2018-Feb-21 05:06N 05°25' E 100°21'0 0.0
2018-Feb-21 04:54N 05°25' E 100°21'0 0.1
2018-Feb-21 04:30N 05°25' E 100°21'0 0.0
2018-Feb-21 04:00N 05°25' E 100°21'0 0.0
2018-Feb-21 03:30N 05°25' E 100°21'0 0.0
2018-Feb-21 03:00N 05°25' E 100°21'0 0.0
2018-Feb-21 02:30N 05°25' E 100°21'0 0.0
2018-Feb-21 02:00N 05°25' E 100°21'0 0.0
2018-Feb-21 01:30N 05°25' E 100°21'0 0.1
2018-Feb-21 01:00N 05°25' E 100°21'1 1.5
2018-Feb-21 00:30N 05°26' E 100°21'510.1
2018-Feb-21 00:00N 05°31' E 100°19'304 8.3
2018-Feb-19 11:33N 01°22' E 103°14'515.7
2018-Feb-19 11:13N 01°19' E 103°19'517.2
2018-Feb-19 10:56N 01°16' E 103°22'716.9
2018-Feb-19 10:30N 01°13' E 103°29'816.4
2018-Feb-19 10:00N 01°11' E 103°37'715.2
2018-Feb-19 09:31N 01°09' E 103°44'714.0
2018-Feb-19 09:00N 01°12' E 103°50'4 7.4
2018-Feb-19 08:28N 01°16' E 103°52'0 0.7
2018-Feb-19 08:00N 01°16' E 103°52'0 0.0
2018-Feb-19 07:24N 01°16' E 103°52'0 0.0
2018-Feb-19 06:57N 01°16' E 103°52'0 0.0
2018-Feb-19 06:30N 01°16' E 103°52'0 0.0
2018-Feb-19 06:00N 01°16' E 103°52'0 0.0
2018-Feb-19 05:30N 01°16' E 103°52'0 0.0
2018-Feb-19 04:48N 01°16' E 103°52'0 0.0
2018-Feb-19 04:30N 01°16' E 103°52'0 0.0
2018-Feb-19 03:57N 01°16' E 103°52'0 0.0
2018-Feb-19 03:30N 01°16' E 103°52'0 0.0
2018-Feb-19 03:00N 01°16' E 103°52'0 0.0
2018-Feb-19 02:30N 01°16' E 103°52'0 0.0
2018-Feb-19 02:00N 01°16' E 103°52'0 0.0
2018-Feb-19 01:30N 01°16' E 103°52'0 0.0
2018-Feb-19 01:00N 01°16' E 103°52'0 0.0
2018-Feb-19 00:30N 01°16' E 103°52'0 0.0
2018-Feb-19 00:00N 01°16' E 103°52'1 2.1
2018-Feb-18 23:30N 01°15' E 103°52'4 7.7
2018-Feb-18 22:59N 01°11' E 103°50'713.7
2018-Feb-18 22:30N 01°07' E 103°45'714.0
2018-Feb-18 21:59N 01°03' E 103°40'713.5
2018-Feb-18 21:29N 01°06' E 103°34'814.8
2018-Feb-18 20:55N 01°10' E 103°27'614.1
2018-Feb-18 20:29N 01°14' E 103°22'  
2018-Feb-15 11:41N 01°23' E 103°14'515.9
2018-Feb-15 11:22N 01°20' E 103°18'716.7
2018-Feb-15 10:57N 01°16' E 103°23'716.0
2018-Feb-15 10:30N 01°13' E 103°30'815.9
2018-Feb-15 10:00N 01°11' E 103°37'714.7
2018-Feb-15 09:30N 01°08' E 103°44'815.2
2018-Feb-15 08:59N 01°12' E 103°51'4 7.5
2018-Feb-15 08:30N 01°16' E 103°52'0 0.3
2018-Feb-15 07:57N 01°16' E 103°52'0 0.0
2018-Feb-15 07:27N 01°16' E 103°52'0 0.0
2018-Feb-15 06:57N 01°16' E 103°52'0 0.0
2018-Feb-15 06:21N 01°16' E 103°52'0 0.0
2018-Feb-15 05:57N 01°16' E 103°52'0 0.0
2018-Feb-15 05:21N 01°16' E 103°52'0 0.0
2018-Feb-15 05:00N 01°16' E 103°52'0 0.0
2018-Feb-15 04:30N 01°16' E 103°52'0 0.0
2018-Feb-15 04:00N 01°16' E 103°52'0 0.0
2018-Feb-15 03:27N 01°16' E 103°52'0 0.0
2018-Feb-15 02:51N 01°16' E 103°52'0 0.0
2018-Feb-15 02:15N 01°16' E 103°52'0 0.0
2018-Feb-15 01:57N 01°16' E 103°52'0 0.0
2018-Feb-15 01:27N 01°16' E 103°52'0 0.0
2018-Feb-15 00:57N 01°16' E 103°52'0 0.0
2018-Feb-15 00:27N 01°16' E 103°52'0 0.0
2018-Feb-14 23:57N 01°16' E 103°52'1 2.2
2018-Feb-14 23:30N 01°15' E 103°52'1212.4
2018-Feb-14 22:32N 01°17' E 104°04'016.0
2018-Feb-14 22:30N 01°17' E 104°04'  
Track history (hours):
 
Tides and Currents Weather Stations Pressure Air Temp Water Temp Dewpoint Dewpoint Depression Visibility Wind Speed Wind Dir Waves Ship Positions

Mariner Of The Seas

Operator: Royal Caribbean Cruises Ltd

Last reported at 2018-Feb-24 11:27 UTC. Time now 2018-Feb-25 07:51 UTC.
Position N 01°22' E 103°15'.

Type: Passenger vessel. MMSI: 311493000.

Date/timePositionNaut miles runAvg speedWind from/ knotsBaromVisibWave heightAir tempDewpointWater temp
2018-Feb-24 11:27N 01°22' E 103°15'816.2
2018-Feb-24 10:58N 01°17' E 103°21'815.8
2018-Feb-24 10:29N 01°13' E 103°27'715.2
2018-Feb-24 09:59N 01°11' E 103°35'715.5
2018-Feb-24 09:30N 01°09' E 103°42'815.5
2018-Feb-24 09:00N 01°11' E 103°49'5 9.8
2018-Feb-24 08:30N 01°16' E 103°52'0 0.6
2018-Feb-24 07:52N 01°16' E 103°52'0 0.0
2018-Feb-24 07:25N 01°16' E 103°52'0 0.0
2018-Feb-24 06:52N 01°16' E 103°52'0 0.0
2018-Feb-24 06:28N 01°16' E 103°52'0 0.0
2018-Feb-24 05:52N 01°16' E 103°52'0 0.0
2018-Feb-24 05:28N 01°16' E 103°52'0 0.0
2018-Feb-24 04:58N 01°16' E 103°52'0 0.0
2018-Feb-24 04:28N 01°16' E 103°52'0 0.0
2018-Feb-24 03:58N 01°16' E 103°52'0 0.0
2018-Feb-24 03:28N 01°16' E 103°52'0 0.0
2018-Feb-24 02:58N 01°16' E 103°52'0 0.0
2018-Feb-24 02:16N 01°16' E 103°52'0 0.0
2018-Feb-24 01:58N 01°16' E 103°52'0 0.0
2018-Feb-24 01:22N 01°16' E 103°52'0 0.0
2018-Feb-24 00:52N 01°16' E 103°52'0 0.0
2018-Feb-24 00:28N 01°16' E 103°52'0 0.0
2018-Feb-23 23:56N 01°16' E 103°52'3 6.4
2018-Feb-23 23:30N 01°14' E 103°53'4 7.9
2018-Feb-23 23:00N 01°11' E 103°50'714.7
2018-Feb-23 22:31N 01°07' E 103°44'713.9
2018-Feb-23 22:00N 01°03' E 103°38'816.8
2018-Feb-23 21:30N 01°08' E 103°31'816.4
2018-Feb-23 21:00N 01°12' E 103°24'816.4
2018-Feb-23 20:30N 01°17' E 103°17'23115.9
2018-Feb-23 06:00N 03°42' E 100°18'114 2.6 280 / 51016.6 5.4 30.0 30.0
2018-Feb-21 10:56N 05°35' E 100°13'613.8
2018-Feb-21 10:29N 05°32' E 100°18'612.3
2018-Feb-21 09:58N 05°26' E 100°21'1 1.5
2018-Feb-21 09:24N 05°25' E 100°21'0 0.0
2018-Feb-21 09:00N 05°25' E 100°21'0 0.0
2018-Feb-21 05:06N 05°25' E 100°21'0 0.0
2018-Feb-21 04:54N 05°25' E 100°21'0 0.1
2018-Feb-21 04:30N 05°25' E 100°21'0 0.0
2018-Feb-21 04:00N 05°25' E 100°21'0 0.0
2018-Feb-21 03:30N 05°25' E 100°21'0 0.0
2018-Feb-21 03:00N 05°25' E 100°21'0 0.0
2018-Feb-21 02:30N 05°25' E 100°21'0 0.0
2018-Feb-21 02:00N 05°25' E 100°21'0 0.0
2018-Feb-21 01:30N 05°25' E 100°21'0 0.1
2018-Feb-21 01:00N 05°25' E 100°21'1 1.5
2018-Feb-21 00:30N 05°26' E 100°21'510.1
2018-Feb-21 00:00N 05°31' E 100°19'304 8.3
2018-Feb-19 11:33N 01°22' E 103°14'515.7
2018-Feb-19 11:13N 01°19' E 103°19'517.2
2018-Feb-19 10:56N 01°16' E 103°22'716.9
2018-Feb-19 10:30N 01°13' E 103°29'816.4
2018-Feb-19 10:00N 01°11' E 103°37'715.2
2018-Feb-19 09:31N 01°09' E 103°44'714.0
2018-Feb-19 09:00N 01°12' E 103°50'4 7.4
2018-Feb-19 08:28N 01°16' E 103°52'0 0.7
2018-Feb-19 08:00N 01°16' E 103°52'0 0.0
2018-Feb-19 07:24N 01°16' E 103°52'0 0.0
2018-Feb-19 06:57N 01°16' E 103°52'0 0.0
2018-Feb-19 06:30N 01°16' E 103°52'0 0.0
2018-Feb-19 06:00N 01°16' E 103°52'0 0.0
2018-Feb-19 05:30N 01°16' E 103°52'0 0.0
2018-Feb-19 04:48N 01°16' E 103°52'0 0.0
2018-Feb-19 04:30N 01°16' E 103°52'0 0.0
2018-Feb-19 03:57N 01°16' E 103°52'0 0.0
2018-Feb-19 03:30N 01°16' E 103°52'0 0.0
2018-Feb-19 03:00N 01°16' E 103°52'0 0.0
2018-Feb-19 02:30N 01°16' E 103°52'0 0.0
2018-Feb-19 02:00N 01°16' E 103°52'0 0.0
2018-Feb-19 01:30N 01°16' E 103°52'0 0.0
2018-Feb-19 01:00N 01°16' E 103°52'0 0.0
2018-Feb-19 00:30N 01°16' E 103°52'0 0.0
2018-Feb-19 00:00N 01°16' E 103°52'1 2.1
2018-Feb-18 23:30N 01°15' E 103°52'4 7.7
2018-Feb-18 22:59N 01°11' E 103°50'713.7
2018-Feb-18 22:30N 01°07' E 103°45'714.0
2018-Feb-18 21:59N 01°03' E 103°40'713.5
2018-Feb-18 21:29N 01°06' E 103°34'814.8
2018-Feb-18 20:55N 01°10' E 103°27'614.1
2018-Feb-18 20:29N 01°14' E 103°22'  
2018-Feb-15 11:41N 01°23' E 103°14'515.9
2018-Feb-15 11:22N 01°20' E 103°18'716.7
2018-Feb-15 10:57N 01°16' E 103°23'716.0
2018-Feb-15 10:30N 01°13' E 103°30'815.9
2018-Feb-15 10:00N 01°11' E 103°37'714.7
2018-Feb-15 09:30N 01°08' E 103°44'815.2
2018-Feb-15 08:59N 01°12' E 103°51'4 7.5
2018-Feb-15 08:30N 01°16' E 103°52'0 0.3
2018-Feb-15 07:57N 01°16' E 103°52'0 0.0
2018-Feb-15 07:27N 01°16' E 103°52'0 0.0
2018-Feb-15 06:57N 01°16' E 103°52'0 0.0
2018-Feb-15 06:21N 01°16' E 103°52'0 0.0
2018-Feb-15 05:57N 01°16' E 103°52'0 0.0
2018-Feb-15 05:21N 01°16' E 103°52'0 0.0
2018-Feb-15 05:00N 01°16' E 103°52'0 0.0
2018-Feb-15 04:30N 01°16' E 103°52'0 0.0
2018-Feb-15 04:00N 01°16' E 103°52'0 0.0
2018-Feb-15 03:27N 01°16' E 103°52'0 0.0
2018-Feb-15 02:51N 01°16' E 103°52'0 0.0
2018-Feb-15 02:15N 01°16' E 103°52'0 0.0
2018-Feb-15 01:57N 01°16' E 103°52'0 0.0
2018-Feb-15 01:27N 01°16' E 103°52'0 0.0
2018-Feb-15 00:57N 01°16' E 103°52'0 0.0
2018-Feb-15 00:27N 01°16' E 103°52'0 0.0
2018-Feb-14 23:57N 01°16' E 103°52'1 2.2
2018-Feb-14 23:30N 01°15' E 103°52'1212.4
2018-Feb-14 22:32N 01°17' E 104°04'016.0
2018-Feb-14 22:30N 01°17' E 104°04'  

Dump ship's entire track history